sensor_id;sensor_type;location;lat;lon;timestamp;pressure;altitude;pressure_sealevel;temperature;humidity
38718;BME280;24468;52.128;9.278;2023-06-22T00:01:27;101014.13;;;21.15;100.00
38718;BME280;24468;52.128;9.278;2023-06-22T00:03:53;101014.25;;;21.13;100.00
38718;BME280;24468;52.128;9.278;2023-06-22T00:06:19;101016.38;;;21.09;100.00
38718;BME280;24468;52.128;9.278;2023-06-22T00:08:44;101012.09;;;20.83;100.00
38718;BME280;24468;52.128;9.278;2023-06-22T00:11:10;101011.34;;;20.81;100.00
38718;BME280;24468;52.128;9.278;2023-06-22T00:13:35;101014.59;;;20.39;100.00
38718;BME280;24468;52.128;9.278;2023-06-22T00:16:01;101009.63;;;19.85;100.00
38718;BME280;24468;52.128;9.278;2023-06-22T00:18:26;101007.31;;;19.55;100.00
38718;BME280;24468;52.128;9.278;2023-06-22T00:20:55;101014.66;;;19.91;100.00
38718;BME280;24468;52.128;9.278;2023-06-22T00:23:23;101004.63;;;20.03;100.00
38718;BME280;24468;52.128;9.278;2023-06-22T00:25:49;101003.22;;;19.97;100.00
38718;BME280;24468;52.128;9.278;2023-06-22T00:28:15;101010.72;;;20.31;100.00
38718;BME280;24468;52.128;9.278;2023-06-22T00:30:41;101001.25;;;20.35;100.00
38718;BME280;24468;52.128;9.278;2023-06-22T00:33:06;100993.72;;;20.14;100.00
38718;BME280;24468;52.128;9.278;2023-06-22T00:35:33;100984.69;;;20.01;100.00
38718;BME280;24468;52.128;9.278;2023-06-22T00:38:00;100993.88;;;19.89;100.00
38718;BME280;24468;52.128;9.278;2023-06-22T00:40:33;100987.03;;;19.70;100.00
38718;BME280;24468;52.128;9.278;2023-06-22T00:42:59;100993.88;;;19.89;100.00
38718;BME280;24468;52.128;9.278;2023-06-22T00:45:26;100990.47;;;20.09;100.00
38718;BME280;24468;52.128;9.278;2023-06-22T00:47:53;100980.84;;;20.04;100.00
38718;BME280;24468;52.128;9.278;2023-06-22T00:50:24;100980.03;;;19.90;100.00
38718;BME280;24468;52.128;9.278;2023-06-22T00:52:56;100985.38;;;19.81;100.00
38718;BME280;24468;52.128;9.278;2023-06-22T00:55:23;100973.34;;;19.94;100.00
38718;BME280;24468;52.128;9.278;2023-06-22T00:57:51;100975.88;;;19.61;100.00
38718;BME280;24468;52.128;9.278;2023-06-22T01:00:24;100973.78;;;19.64;100.00
38718;BME280;24468;52.128;9.278;2023-06-22T01:02:51;100970.50;;;19.72;100.00
38718;BME280;24468;52.128;9.278;2023-06-22T01:05:20;100969.63;;;19.71;100.00
38718;BME280;24468;52.128;9.278;2023-06-22T01:08:04;100954.53;;;19.66;100.00
38718;BME280;24468;52.128;9.278;2023-06-22T01:11:10;100962.31;;;19.72;100.00
38718;BME280;24468;52.128;9.278;2023-06-22T01:16:34;100973.66;;;19.79;100.00
38718;BME280;24468;52.128;9.278;2023-06-22T01:19:13;100970.63;;;19.94;100.00
38718;BME280;24468;52.128;9.278;2023-06-22T01:21:41;100971.88;;;20.02;100.00
38718;BME280;24468;52.128;9.278;2023-06-22T01:27:56;100970.94;;;19.42;100.00
38718;BME280;24468;52.128;9.278;2023-06-22T01:30:27;100971.44;;;19.47;100.00
38718;BME280;24468;52.128;9.278;2023-06-22T01:32:56;100968.81;;;19.45;100.00
38718;BME280;24468;52.128;9.278;2023-06-22T01:35:22;100975.16;;;19.46;100.00
38718;BME280;24468;52.128;9.278;2023-06-22T01:37:49;100972.59;;;19.31;100.00
38718;BME280;24468;52.128;9.278;2023-06-22T01:40:15;100973.06;;;19.13;100.00
38718;BME280;24468;52.128;9.278;2023-06-22T01:42:41;100969.72;;;19.33;100.00
38718;BME280;24468;52.128;9.278;2023-06-22T01:45:10;100964.34;;;19.07;100.00
38718;BME280;24468;52.128;9.278;2023-06-22T01:47:36;100970.00;;;19.17;100.00
38718;BME280;24468;52.128;9.278;2023-06-22T01:50:02;100970.66;;;19.21;100.00
38718;BME280;24468;52.128;9.278;2023-06-22T01:52:28;100971.97;;;19.28;100.00
38718;BME280;24468;52.128;9.278;2023-06-22T01:54:53;100971.84;;;19.17;100.00
38718;BME280;24468;52.128;9.278;2023-06-22T01:57:19;100978.94;;;19.19;100.00
38718;BME280;24468;52.128;9.278;2023-06-22T01:59:53;100966.84;;;19.10;100.00
38718;BME280;24468;52.128;9.278;2023-06-22T02:02:24;100973.75;;;19.03;100.00
38718;BME280;24468;52.128;9.278;2023-06-22T02:05:16;100971.66;;;19.07;100.00
38718;BME280;24468;52.128;9.278;2023-06-22T02:08:02;100968.69;;;19.10;100.00
38718;BME280;24468;52.128;9.278;2023-06-22T02:10:32;100966.56;;;18.90;100.00
38718;BME280;24468;52.128;9.278;2023-06-22T02:13:02;100960.00;;;19.29;100.00
38718;BME280;24468;52.128;9.278;2023-06-22T02:15:28;100960.31;;;19.37;100.00
38718;BME280;24468;52.128;9.278;2023-06-22T02:17:54;100963.81;;;19.39;100.00
38718;BME280;24468;52.128;9.278;2023-06-22T02:20:20;100971.53;;;19.21;100.00
38718;BME280;24468;52.128;9.278;2023-06-22T02:22:45;100972.31;;;19.10;100.00
38718;BME280;24468;52.128;9.278;2023-06-22T02:25:11;100976.03;;;19.09;100.00
38718;BME280;24468;52.128;9.278;2023-06-22T02:27:36;100981.91;;;19.16;100.00
38718;BME280;24468;52.128;9.278;2023-06-22T02:30:09;100975.81;;;19.13;100.00
38718;BME280;24468;52.128;9.278;2023-06-22T02:32:35;100989.16;;;19.04;100.00
38718;BME280;24468;52.128;9.278;2023-06-22T02:35:01;100979.88;;;19.07;100.00
38718;BME280;24468;52.128;9.278;2023-06-22T02:37:31;100987.84;;;19.10;100.00
38718;BME280;24468;52.128;9.278;2023-06-22T02:39:57;100991.91;;;19.17;100.00
38718;BME280;24468;52.128;9.278;2023-06-22T02:42:22;100990.34;;;19.26;100.00
38718;BME280;24468;52.128;9.278;2023-06-22T02:44:48;100990.41;;;19.37;100.00
38718;BME280;24468;52.128;9.278;2023-06-22T02:47:14;100991.84;;;19.30;100.00
38718;BME280;24468;52.128;9.278;2023-06-22T02:49:39;100995.66;;;19.40;100.00
38718;BME280;24468;52.128;9.278;2023-06-22T02:52:05;100995.97;;;19.48;100.00
38718;BME280;24468;52.128;9.278;2023-06-22T02:54:31;100997.69;;;19.49;100.00
38718;BME280;24468;52.128;9.278;2023-06-22T02:56:56;101000.97;;;19.54;100.00
38718;BME280;24468;52.128;9.278;2023-06-22T02:59:22;100988.25;;;19.29;100.00
38718;BME280;24468;52.128;9.278;2023-06-22T03:01:52;100994.50;;;19.19;100.00
38718;BME280;24468;52.128;9.278;2023-06-22T03:04:18;100996.00;;;19.36;100.00
38718;BME280;24468;52.128;9.278;2023-06-22T03:06:43;100999.03;;;19.44;100.00
38718;BME280;24468;52.128;9.278;2023-06-22T03:09:09;101001.59;;;19.21;100.00
38718;BME280;24468;52.128;9.278;2023-06-22T03:11:34;101003.69;;;19.18;100.00
38718;BME280;24468;52.128;9.278;2023-06-22T03:14:01;100996.78;;;19.25;100.00
38718;BME280;24468;52.128;9.278;2023-06-22T03:16:27;101000.19;;;19.16;100.00
38718;BME280;24468;52.128;9.278;2023-06-22T03:18:53;100997.59;;;19.01;100.00
38718;BME280;24468;52.128;9.278;2023-06-22T03:21:21;101000.50;;;19.37;100.00
38718;BME280;24468;52.128;9.278;2023-06-22T03:23:47;100993.84;;;19.28;100.00
38718;BME280;24468;52.128;9.278;2023-06-22T03:26:12;100987.84;;;19.47;100.00
38718;BME280;24468;52.128;9.278;2023-06-22T03:28:38;100995.66;;;19.40;100.00
38718;BME280;24468;52.128;9.278;2023-06-22T03:31:04;100996.13;;;19.34;100.00
38718;BME280;24468;52.128;9.278;2023-06-22T03:33:32;100987.22;;;19.43;100.00
38718;BME280;24468;52.128;9.278;2023-06-22T03:35:57;100989.56;;;19.24;100.00
38718;BME280;24468;52.128;9.278;2023-06-22T03:38:23;100989.41;;;19.38;100.00
38718;BME280;24468;52.128;9.278;2023-06-22T03:40:48;100980.03;;;19.29;100.00
38718;BME280;24468;52.128;9.278;2023-06-22T03:43:14;100983.09;;;19.62;100.00
38718;BME280;24468;52.128;9.278;2023-06-22T03:45:39;100976.44;;;19.66;100.00
38718;BME280;24468;52.128;9.278;2023-06-22T03:48:05;100985.94;;;19.73;100.00
38718;BME280;24468;52.128;9.278;2023-06-22T03:50:31;100991.06;;;19.77;100.00
38718;BME280;24468;52.128;9.278;2023-06-22T03:52:57;100981.94;;;20.01;100.00
38718;BME280;24468;52.128;9.278;2023-06-22T03:55:22;100983.47;;;20.05;100.00
38718;BME280;24468;52.128;9.278;2023-06-22T03:57:48;100976.84;;;19.72;100.00
38718;BME280;24468;52.128;9.278;2023-06-22T04:00:14;100983.66;;;19.91;100.00
38718;BME280;24468;52.128;9.278;2023-06-22T04:02:41;100986.09;;;20.07;100.00
38718;BME280;24468;52.128;9.278;2023-06-22T04:05:09;100978.63;;;20.09;100.00
38718;BME280;24468;52.128;9.278;2023-06-22T04:07:34;100976.13;;;20.06;100.00
38718;BME280;24468;52.128;9.278;2023-06-22T04:10:04;100981.38;;;20.09;100.00
38718;BME280;24468;52.128;9.278;2023-06-22T04:12:29;100983.31;;;19.95;100.00
38718;BME280;24468;52.128;9.278;2023-06-22T04:14:55;100984.59;;;20.03;100.00
38718;BME280;24468;52.128;9.278;2023-06-22T04:17:20;100982.81;;;20.02;100.00
38718;BME280;24468;52.128;9.278;2023-06-22T04:19:46;100989.06;;;20.04;100.00
38718;BME280;24468;52.128;9.278;2023-06-22T04:22:12;100993.00;;;20.24;100.00
38718;BME280;24468;52.128;9.278;2023-06-22T04:24:37;100990.56;;;20.43;100.00
38718;BME280;24468;52.128;9.278;2023-06-22T04:27:04;100994.38;;;20.29;100.00
38718;BME280;24468;52.128;9.278;2023-06-22T04:29:30;100992.91;;;20.36;100.00
38718;BME280;24468;52.128;9.278;2023-06-22T04:31:59;100992.94;;;20.48;100.00
38718;BME280;24468;52.128;9.278;2023-06-22T04:34:29;100994.09;;;20.56;100.00
38718;BME280;24468;52.128;9.278;2023-06-22T04:36:55;100983.84;;;20.47;100.00
38718;BME280;24468;52.128;9.278;2023-06-22T04:39:21;100987.41;;;20.60;100.00
38718;BME280;24468;52.128;9.278;2023-06-22T04:41:46;100976.56;;;20.81;100.00
38718;BME280;24468;52.128;9.278;2023-06-22T04:44:17;100981.31;;;20.91;100.00
38718;BME280;24468;52.128;9.278;2023-06-22T04:46:54;100980.47;;;20.79;100.00
38718;BME280;24468;52.128;9.278;2023-06-22T04:49:26;100974.31;;;20.86;100.00
38718;BME280;24468;52.128;9.278;2023-06-22T04:52:16;100979.59;;;21.01;100.00
38718;BME280;24468;52.128;9.278;2023-06-22T04:54:45;100979.69;;;21.10;100.00
38718;BME280;24468;52.128;9.278;2023-06-22T04:57:20;100984.06;;;21.24;100.00
38718;BME280;24468;52.128;9.278;2023-06-22T04:59:46;100980.44;;;21.35;100.00
38718;BME280;24468;52.128;9.278;2023-06-22T05:02:11;100976.59;;;21.38;100.00
38718;BME280;24468;52.128;9.278;2023-06-22T05:04:37;100979.66;;;21.33;100.00
38718;BME280;24468;52.128;9.278;2023-06-22T05:07:04;100966.72;;;21.46;100.00
38718;BME280;24468;52.128;9.278;2023-06-22T05:09:30;100963.81;;;21.59;100.00
38718;BME280;24468;52.128;9.278;2023-06-22T05:11:56;100954.66;;;21.04;100.00
38718;BME280;24468;52.128;9.278;2023-06-22T05:14:22;100951.34;;;21.32;100.00
38718;BME280;24468;52.128;9.278;2023-06-22T05:16:48;100955.50;;;21.38;100.00
38718;BME280;24468;52.128;9.278;2023-06-22T05:19:14;100953.47;;;21.51;100.00
38718;BME280;24468;52.128;9.278;2023-06-22T05:21:40;100955.09;;;21.54;100.00
38718;BME280;24468;52.128;9.278;2023-06-22T05:24:05;100954.97;;;21.56;100.00
38718;BME280;24468;52.128;9.278;2023-06-22T05:26:33;100959.84;;;21.52;100.00
38718;BME280;24468;52.128;9.278;2023-06-22T05:29:00;100962.47;;;21.31;100.00
38718;BME280;24468;52.128;9.278;2023-06-22T05:31:26;100959.34;;;21.47;100.00
38718;BME280;24468;52.128;9.278;2023-06-22T05:33:54;100965.31;;;21.52;100.00
38718;BME280;24468;52.128;9.278;2023-06-22T05:36:20;100965.78;;;21.68;100.00
38718;BME280;24468;52.128;9.278;2023-06-22T05:38:47;100959.88;;;21.84;100.00
38718;BME280;24468;52.128;9.278;2023-06-22T05:41:13;100960.97;;;22.14;100.00
38718;BME280;24468;52.128;9.278;2023-06-22T05:43:39;100959.28;;;22.02;100.00
38718;BME280;24468;52.128;9.278;2023-06-22T05:46:05;100961.00;;;21.82;100.00
38718;BME280;24468;52.128;9.278;2023-06-22T05:48:31;100959.28;;;22.02;100.00
38718;BME280;24468;52.128;9.278;2023-06-22T05:50:56;100957.72;;;22.20;100.00
38718;BME280;24468;52.128;9.278;2023-06-22T05:53:22;100965.31;;;22.28;100.00
38718;BME280;24468;52.128;9.278;2023-06-22T05:55:48;100964.34;;;22.17;100.00
38718;BME280;24468;52.128;9.278;2023-06-22T05:58:13;100959.47;;;22.42;100.00
38718;BME280;24468;52.128;9.278;2023-06-22T06:00:40;100955.69;;;22.64;100.00
38718;BME280;24468;52.128;9.278;2023-06-22T06:03:07;100959.09;;;22.98;100.00
38718;BME280;24468;52.128;9.278;2023-06-22T06:05:33;100956.47;;;22.97;100.00
38718;BME280;24468;52.128;9.278;2023-06-22T06:08:05;100957.72;;;22.93;100.00
38718;BME280;24468;52.128;9.278;2023-06-22T06:10:32;100953.78;;;23.06;100.00
38718;BME280;24468;52.128;9.278;2023-06-22T06:12:59;100954.75;;;22.75;100.00
38718;BME280;24468;52.128;9.278;2023-06-22T06:15:27;100952.44;;;22.28;100.00
38718;BME280;24468;52.128;9.278;2023-06-22T06:17:54;100952.75;;;22.35;100.00
38718;BME280;24468;52.128;9.278;2023-06-22T06:20:23;100948.44;;;22.00;100.00
38718;BME280;24468;52.128;9.278;2023-06-22T06:22:49;100951.09;;;22.23;100.00
38718;BME280;24468;52.128;9.278;2023-06-22T06:25:16;100942.50;;;22.58;100.00
38718;BME280;24468;52.128;9.278;2023-06-22T06:27:46;100948.13;;;22.56;100.00
38718;BME280;24468;52.128;9.278;2023-06-22T06:30:14;100939.84;;;22.26;100.00
38718;BME280;24468;52.128;9.278;2023-06-22T06:32:40;100949.41;;;22.52;100.00
38718;BME280;24468;52.128;9.278;2023-06-22T06:35:08;100948.59;;;22.61;100.00
38718;BME280;24468;52.128;9.278;2023-06-22T06:37:39;100944.34;;;22.78;100.00
38718;BME280;24468;52.128;9.278;2023-06-22T06:40:07;100944.03;;;22.72;100.00
38718;BME280;24468;52.128;9.278;2023-06-22T06:42:44;100941.28;;;22.72;100.00
38718;BME280;24468;52.128;9.278;2023-06-22T06:45:19;100943.97;;;22.62;100.00
38718;BME280;24468;52.128;9.278;2023-06-22T06:47:46;100940.44;;;23.12;100.00
38718;BME280;24468;52.128;9.278;2023-06-22T06:50:12;100946.22;;;23.08;100.00
38718;BME280;24468;52.128;9.278;2023-06-22T06:52:38;100941.53;;;23.30;100.00
38718;BME280;24468;52.128;9.278;2023-06-22T06:55:04;100931.22;;;23.22;100.00
38718;BME280;24468;52.128;9.278;2023-06-22T06:57:34;100937.25;;;23.66;100.00
38718;BME280;24468;52.128;9.278;2023-06-22T07:00:00;100936.84;;;23.90;100.00
38718;BME280;24468;52.128;9.278;2023-06-22T07:02:27;100928.75;;;24.08;100.00
38718;BME280;24468;52.128;9.278;2023-06-22T07:04:53;100930.34;;;23.82;100.00
38718;BME280;24468;52.128;9.278;2023-06-22T07:07:21;100931.72;;;23.66;100.00
38718;BME280;24468;52.128;9.278;2023-06-22T07:09:46;100924.38;;;24.15;100.00
38718;BME280;24468;52.128;9.278;2023-06-22T07:12:12;100928.53;;;24.39;100.00
38718;BME280;24468;52.128;9.278;2023-06-22T07:14:38;100917.63;;;24.57;100.00
38718;BME280;24468;52.128;9.278;2023-06-22T07:17:04;100925.38;;;24.91;100.00
38718;BME280;24468;52.128;9.278;2023-06-22T07:19:29;100920.19;;;25.15;100.00
38718;BME280;24468;52.128;9.278;2023-06-22T07:21:56;100917.91;;;25.28;100.00
38718;BME280;24468;52.128;9.278;2023-06-22T07:24:22;100923.94;;;25.14;100.00
38718;BME280;24468;52.128;9.278;2023-06-22T07:26:48;100931.91;;;25.45;100.00
38718;BME280;24468;52.128;9.278;2023-06-22T07:29:18;100921.22;;;25.60;100.00
38718;BME280;24468;52.128;9.278;2023-06-22T07:31:45;100924.56;;;25.99;100.00
38718;BME280;24468;52.128;9.278;2023-06-22T07:34:10;100922.59;;;26.09;100.00
38718;BME280;24468;52.128;9.278;2023-06-22T07:36:36;100917.69;;;25.67;100.00
38718;BME280;24468;52.128;9.278;2023-06-22T07:39:02;100926.63;;;25.34;100.00
38718;BME280;24468;52.128;9.278;2023-06-22T07:41:29;100925.38;;;24.91;100.00
38718;BME280;24468;52.128;9.278;2023-06-22T07:43:55;100927.13;;;25.19;100.00
38718;BME280;24468;52.128;9.278;2023-06-22T07:46:20;100920.88;;;25.45;100.00
38718;BME280;24468;52.128;9.278;2023-06-22T07:48:46;100919.06;;;25.36;100.00
38718;BME280;24468;52.128;9.278;2023-06-22T07:51:11;100921.19;;;25.42;100.00
38718;BME280;24468;52.128;9.278;2023-06-22T07:53:44;100916.94;;;25.47;100.00
38718;BME280;24468;52.128;9.278;2023-06-22T07:56:13;100920.31;;;25.23;100.00
38718;BME280;24468;52.128;9.278;2023-06-22T07:58:39;100920.97;;;24.98;100.00
38718;BME280;24468;52.128;9.278;2023-06-22T08:01:05;100931.34;;;25.23;100.00
38718;BME280;24468;52.128;9.278;2023-06-22T08:03:31;100923.44;;;25.74;100.00
38718;BME280;24468;52.128;9.278;2023-06-22T08:05:57;100923.53;;;25.64;100.00
38718;BME280;24468;52.128;9.278;2023-06-22T08:08:23;100920.44;;;25.67;100.00
38718;BME280;24468;52.128;9.278;2023-06-22T08:10:49;100921.16;;;25.24;100.00
38718;BME280;24468;52.128;9.278;2023-06-22T08:13:14;100919.59;;;25.39;100.00
38718;BME280;24468;52.128;9.278;2023-06-22T08:15:40;100921.38;;;25.03;100.00
38718;BME280;24468;52.128;9.278;2023-06-22T08:18:05;100927.59;;;25.15;100.00
38718;BME280;24468;52.128;9.278;2023-06-22T08:20:31;100915.25;;;25.37;100.00
38718;BME280;24468;52.128;9.278;2023-06-22T08:22:56;100915.09;;;25.20;100.00
38718;BME280;24468;52.128;9.278;2023-06-22T08:25:23;100915.03;;;25.30;100.00
38718;BME280;24468;52.128;9.278;2023-06-22T08:27:49;100917.69;;;25.67;100.00
38718;BME280;24468;52.128;9.278;2023-06-22T08:30:15;100922.41;;;25.57;100.00
38718;BME280;24468;52.128;9.278;2023-06-22T08:32:41;100918.38;;;25.51;100.00
38718;BME280;24468;52.128;9.278;2023-06-22T08:35:07;100914.97;;;25.58;100.00
38718;BME280;24468;52.128;9.278;2023-06-22T08:37:35;100914.44;;;25.54;100.00
38718;BME280;24468;52.128;9.278;2023-06-22T08:40:05;100917.19;;;25.54;100.00
38718;BME280;24468;52.128;9.278;2023-06-22T08:42:31;100910.00;;;25.43;100.00
38718;BME280;24468;52.128;9.278;2023-06-22T08:44:57;100905.28;;;25.54;100.00
38718;BME280;24468;52.128;9.278;2023-06-22T08:47:23;100902.19;;;25.74;100.00
38718;BME280;24468;52.128;9.278;2023-06-22T08:49:49;100911.03;;;25.60;100.00
38718;BME280;24468;52.128;9.278;2023-06-22T08:52:15;100900.56;;;25.18;100.00
38718;BME280;24468;52.128;9.278;2023-06-22T08:54:40;100889.66;;;25.62;100.00
38718;BME280;24468;52.128;9.278;2023-06-22T08:57:06;100875.91;;;25.70;100.00
38718;BME280;24468;52.128;9.278;2023-06-22T08:59:32;100870.22;;;25.72;100.00
38718;BME280;24468;52.128;9.278;2023-06-22T09:01:57;100867.63;;;26.06;100.00
38718;BME280;24468;52.128;9.278;2023-06-22T09:04:24;100873.84;;;26.08;100.00
38718;BME280;24468;52.128;9.278;2023-06-22T09:06:49;100873.03;;;26.16;100.00
38718;BME280;24468;52.128;9.278;2023-06-22T09:09:16;100887.69;;;25.72;100.00
38718;BME280;24468;52.128;9.278;2023-06-22T09:11:42;100886.06;;;26.50;100.00
38718;BME280;24468;52.128;9.278;2023-06-22T09:14:09;100878.53;;;26.34;100.00
38718;BME280;24468;52.128;9.278;2023-06-22T09:16:34;100872.50;;;26.12;100.00
38718;BME280;24468;52.128;9.278;2023-06-22T09:19:00;100875.50;;;26.19;100.00
38718;BME280;24468;52.128;9.278;2023-06-22T09:21:26;100868.59;;;26.49;100.00
38718;BME280;24468;52.128;9.278;2023-06-22T09:23:51;100877.72;;;26.42;100.00
38718;BME280;24468;52.128;9.278;2023-06-22T09:26:18;100868.44;;;26.77;100.00
38718;BME280;24468;52.128;9.278;2023-06-22T09:28:44;100867.72;;;26.75;100.00
38718;BME280;24468;52.128;9.278;2023-06-22T09:31:09;100859.81;;;26.80;100.00
38718;BME280;24468;52.128;9.278;2023-06-22T09:33:36;100850.00;;;26.59;100.00
38718;BME280;24468;52.128;9.278;2023-06-22T09:36:05;100847.56;;;26.30;100.00
38718;BME280;24468;52.128;9.278;2023-06-22T09:38:37;100847.88;;;25.47;100.00
38718;BME280;24468;52.128;9.278;2023-06-22T09:41:03;100841.72;;;25.71;100.00
38718;BME280;24468;52.128;9.278;2023-06-22T09:43:31;100835.66;;;25.68;100.00
38718;BME280;24468;52.128;9.278;2023-06-22T09:45:57;100840.78;;;25.81;100.00
38718;BME280;24468;52.128;9.278;2023-06-22T09:48:22;100836.75;;;25.57;100.00
38718;BME280;24468;52.128;9.278;2023-06-22T09:50:48;100833.09;;;25.74;100.00
38718;BME280;24468;52.128;9.278;2023-06-22T09:53:13;100831.94;;;25.95;100.00
38718;BME280;24468;52.128;9.278;2023-06-22T09:55:39;100840.34;;;26.11;100.00
38718;BME280;24468;52.128;9.278;2023-06-22T09:58:04;100835.31;;;26.33;100.00
38718;BME280;24468;52.128;9.278;2023-06-22T10:00:30;100835.09;;;26.00;100.00
38718;BME280;24468;52.128;9.278;2023-06-22T10:02:56;100832.88;;;26.56;100.00
38718;BME280;24468;52.128;9.278;2023-06-22T10:05:22;100842.44;;;26.70;100.00
38718;BME280;24468;52.128;9.278;2023-06-22T10:07:47;100840.72;;;26.69;100.00
38718;BME280;24468;52.128;9.278;2023-06-22T10:10:13;100835.31;;;27.01;100.00
38718;BME280;24468;52.128;9.278;2023-06-22T10:12:54;100828.31;;;27.23;100.00
38718;BME280;24468;52.128;9.278;2023-06-22T10:15:20;100825.69;;;27.22;100.00
38718;BME280;24468;52.128;9.278;2023-06-22T10:17:46;100836.47;;;27.33;100.00
38718;BME280;24468;52.128;9.278;2023-06-22T10:20:12;100827.09;;;27.42;100.00
38718;BME280;24468;52.128;9.278;2023-06-22T10:22:43;100825.56;;;27.32;100.00
38718;BME280;24468;52.128;9.278;2023-06-22T10:25:12;100819.69;;;27.51;100.00
38718;BME280;24468;52.128;9.278;2023-06-22T10:27:39;100816.38;;;27.39;100.00
38718;BME280;24468;52.128;9.278;2023-06-22T10:30:07;100815.63;;;27.13;100.00
38718;BME280;24468;52.128;9.278;2023-06-22T10:32:33;100812.50;;;26.65;100.00
38718;BME280;24468;52.128;9.278;2023-06-22T10:34:58;100807.09;;;27.06;100.00
38718;BME280;24468;52.128;9.278;2023-06-22T10:37:24;100799.94;;;27.30;100.00
38718;BME280;24468;52.128;9.278;2023-06-22T10:39:50;100795.78;;;27.42;100.00
38718;BME280;24468;52.128;9.278;2023-06-22T10:42:15;100802.19;;;28.00;100.00
38718;BME280;24468;52.128;9.278;2023-06-22T10:44:41;100791.44;;;28.13;100.00
38718;BME280;24468;52.128;9.278;2023-06-22T10:47:08;100782.28;;;28.04;100.00
38718;BME280;24468;52.128;9.278;2023-06-22T10:49:34;100795.22;;;28.28;100.00
38718;BME280;24468;52.128;9.278;2023-06-22T10:51:59;100787.00;;;28.99;100.00
38718;BME280;24468;52.128;9.278;2023-06-22T10:54:25;100786.34;;;28.89;100.00
38718;BME280;24468;52.128;9.278;2023-06-22T10:56:50;100783.59;;;28.80;100.00
38718;BME280;24468;52.128;9.278;2023-06-22T10:59:16;100777.91;;;29.13;100.00
38718;BME280;24468;52.128;9.278;2023-06-22T11:01:41;100783.53;;;28.41;100.00
38718;BME280;24468;52.128;9.278;2023-06-22T11:04:07;100772.72;;;29.10;100.00
38718;BME280;24468;52.128;9.278;2023-06-22T11:06:32;100772.41;;;29.51;100.00
38718;BME280;24468;52.128;9.278;2023-06-22T11:08:58;100767.13;;;29.56;95.08
38718;BME280;24468;52.128;9.278;2023-06-22T11:11:25;100779.91;;;28.41;100.00
38718;BME280;24468;52.128;9.278;2023-06-22T11:13:52;100768.59;;;28.67;98.27
38718;BME280;24468;52.128;9.278;2023-06-22T11:16:18;100753.13;;;29.50;92.29
38718;BME280;24468;52.128;9.278;2023-06-22T11:18:43;100747.69;;;29.33;93.54
38718;BME280;24468;52.128;9.278;2023-06-22T11:21:09;100733.06;;;29.16;88.69
38718;BME280;24468;52.128;9.278;2023-06-22T11:23:34;100729.38;;;28.93;88.49
38718;BME280;24468;52.128;9.278;2023-06-22T11:26:00;100725.16;;;29.05;90.81
38718;BME280;24468;52.128;9.278;2023-06-22T11:28:25;100721.63;;;28.88;87.40
38718;BME280;24468;52.128;9.278;2023-06-22T11:30:51;100713.66;;;29.31;83.94
38718;BME280;24468;52.128;9.278;2023-06-22T11:33:17;100706.19;;;29.32;84.74
38718;BME280;24468;52.128;9.278;2023-06-22T11:35:42;100701.44;;;29.63;85.39
38718;BME280;24468;52.128;9.278;2023-06-22T11:38:08;100709.72;;;30.01;85.93
38718;BME280;24468;52.128;9.278;2023-06-22T11:40:33;100695.81;;;30.46;81.70
38718;BME280;24468;52.128;9.278;2023-06-22T11:42:59;100695.34;;;30.42;79.80
38718;BME280;24468;52.128;9.278;2023-06-22T11:45:24;100685.59;;;29.64;79.85
38718;BME280;24468;52.128;9.278;2023-06-22T11:47:50;100698.69;;;29.55;82.58
38718;BME280;24468;52.128;9.278;2023-06-22T11:50:16;100683.91;;;29.17;84.28
38718;BME280;24468;52.128;9.278;2023-06-22T11:52:41;100679.56;;;28.29;92.14
38718;BME280;24468;52.128;9.278;2023-06-22T11:55:07;100683.44;;;28.11;93.88
38718;BME280;24468;52.128;9.278;2023-06-22T11:57:39;100679.16;;;28.48;93.19
38718;BME280;24468;52.128;9.278;2023-06-22T12:00:17;100679.22;;;29.17;85.95
38718;BME280;24468;52.128;9.278;2023-06-22T12:02:44;100677.47;;;28.93;84.01
38718;BME280;24468;52.128;9.278;2023-06-22T12:05:10;100678.84;;;29.20;84.05
38718;BME280;24468;52.128;9.278;2023-06-22T12:07:36;100677.69;;;29.38;84.56
38718;BME280;24468;52.128;9.278;2023-06-22T12:10:03;100674.75;;;29.54;81.40
38718;BME280;24468;52.128;9.278;2023-06-22T12:12:29;100668.41;;;29.60;83.53
38718;BME280;24468;52.128;9.278;2023-06-22T12:14:54;100668.41;;;29.45;83.15
38718;BME280;24468;52.128;9.278;2023-06-22T12:17:20;100674.22;;;29.74;83.17
38718;BME280;24468;52.128;9.278;2023-06-22T12:19:45;100675.16;;;29.66;82.51
38718;BME280;24468;52.128;9.278;2023-06-22T12:22:11;100670.38;;;29.37;83.27
38718;BME280;24468;52.128;9.278;2023-06-22T12:24:36;100655.72;;;29.05;88.39
38718;BME280;24468;52.128;9.278;2023-06-22T12:27:02;100658.69;;;29.27;94.50
38718;BME280;24468;52.128;9.278;2023-06-22T12:29:28;100654.38;;;28.47;100.00
38718;BME280;24468;52.128;9.278;2023-06-22T12:31:54;100650.31;;;27.54;100.00
38718;BME280;24468;52.128;9.278;2023-06-22T12:34:20;100650.78;;;27.82;100.00
38718;BME280;24468;52.128;9.278;2023-06-22T12:36:45;100650.31;;;28.18;100.00
38718;BME280;24468;52.128;9.278;2023-06-22T12:39:13;100652.75;;;28.13;100.00
38718;BME280;24468;52.128;9.278;2023-06-22T12:41:39;100639.69;;;28.22;100.00
38718;BME280;24468;52.128;9.278;2023-06-22T12:44:04;100646.97;;;28.31;100.00
38718;BME280;24468;52.128;9.278;2023-06-22T12:46:30;100648.56;;;28.56;100.00